Time;durP1;ratioP1;P1;durP2;ratioP2;P2;SDS_P1;SDS_P2;PMS_P1;PMS_P2;Temp;Humidity;BMP_temperature;BMP_pressure;BME280_temperature;BME280_humidity;BME280_pressure;Samples;Min_cycle;Max_cycle;Signal;HPM_P1;HPM_P2
2022/10/27 00:00:12;;;;;;;41.30;16.08;;;19.00;98.40;;;;;;5035527;28;20128;-78
2022/10/27 00:02:37;;;;;;;41.00;14.98;;;19.00;98.20;;;;;;5035121;28;20024;-79
2022/10/27 00:05:04;;;;;;;43.70;15.70;;;19.00;98.10;;;;;;5034831;28;20029;-80
2022/10/27 00:07:29;;;;;;;35.95;14.38;;;18.90;97.90;;;;;;5034748;28;20072;-80
2022/10/27 00:09:55;;;;;;;43.33;15.75;;;18.90;97.80;;;;;;5034702;28;20021;-80
2022/10/27 00:12:21;;;;;;;41.90;14.57;;;18.90;97.80;;;;;;5034978;28;20033;-79
2022/10/27 00:14:47;;;;;;;34.00;14.00;;;18.90;97.60;;;;;;5035125;28;20053;-79
2022/10/27 00:17:12;;;;;;;34.25;14.73;;;18.80;97.60;;;;;;5035029;28;20465;-76
2022/10/27 00:19:38;;;;;;;44.42;15.02;;;18.80;97.50;;;;;;5033238;28;20025;-77
2022/10/27 00:22:04;;;;;;;32.80;13.73;;;18.80;97.50;;;;;;5034112;28;20068;-80
2022/10/27 00:24:29;;;;;;;46.80;15.60;;;18.80;97.60;;;;;;5013380;28;20034;-80
2022/10/27 00:26:55;;;;;;;37.03;15.60;;;18.70;97.40;;;;;;5014562;28;20500;-81
2022/10/27 00:29:21;;;;;;;33.47;14.95;;;18.70;97.50;;;;;;5015344;28;20521;-80
2022/10/27 00:31:46;;;;;;;34.75;14.48;;;18.70;97.50;;;;;;5015242;28;20080;-78
2022/10/27 00:34:12;;;;;;;39.88;14.85;;;18.70;97.60;;;;;;5013485;28;20029;-80
2022/10/27 00:36:38;;;;;;;41.40;16.00;;;18.70;97.60;;;;;;5014511;28;20026;-81
2022/10/27 00:39:05;;;;;;;41.45;14.32;;;18.70;97.50;;;;;;5014717;28;20092;-78
2022/10/27 00:41:36;;;;;;;38.92;13.70;;;18.60;97.40;;;;;;5014221;28;20105;-75
2022/10/27 00:44:40;;;;;;;27.65;13.57;;;18.60;97.40;;;;;;5014540;28;20033;-80
2022/10/27 00:47:33;;;;;;;34.28;12.82;;;18.60;97.10;;;;;;5014388;28;20029;-77
2022/10/27 00:50:04;;;;;;;41.53;12.70;;;18.60;96.80;;;;;;5014535;28;20022;-80
2022/10/27 00:52:37;;;;;;;34.22;13.25;;;18.60;96.50;;;;;;5013878;28;20048;-80
2022/10/27 00:55:17;;;;;;;36.33;12.63;;;18.60;96.30;;;;;;5014134;28;20083;-80
2022/10/27 00:57:45;;;;;;;29.33;11.95;;;18.60;96.10;;;;;;5014560;28;20040;-81
2022/10/27 01:00:11;;;;;;;36.90;13.77;;;18.50;96.00;;;;;;5012833;28;20053;-80
2022/10/27 01:02:37;;;;;;;31.73;12.35;;;18.50;95.90;;;;;;5012791;28;20152;-78
2022/10/27 01:05:11;;;;;;;36.30;12.27;;;18.60;95.90;;;;;;5014357;28;20022;-81
2022/10/27 01:07:39;;;;;;;31.40;12.88;;;18.50;95.80;;;;;;5012679;28;20124;-81
2022/10/27 01:10:05;;;;;;;33.10;13.40;;;18.50;95.90;;;;;;5014425;28;20553;-80
2022/10/27 01:12:31;;;;;;;30.90;12.52;;;18.50;95.80;;;;;;5014069;28;20065;-76
2022/10/27 01:14:57;;;;;;;36.13;13.07;;;18.50;95.80;;;;;;5013741;28;20043;-77
2022/10/27 01:17:47;;;;;;;33.95;13.10;;;18.50;95.70;;;;;;5013717;28;20125;-76
2022/10/27 01:20:44;;;;;;;43.55;14.02;;;18.50;95.70;;;;;;5013775;28;20022;-76
2022/10/27 01:24:01;;;;;;;32.35;13.05;;;18.50;95.70;;;;;;5013689;28;20029;-79
2022/10/27 01:27:04;;;;;;;34.13;12.90;;;18.50;95.80;;;;;;4988496;28;20507;-77
2022/10/27 01:29:58;;;;;;;32.47;11.77;;;18.40;95.80;;;;;;4953161;29;20027;-74
2022/10/27 01:33:10;;;;;;;33.15;11.40;;;18.40;95.50;;;;;;5013484;28;20045;-78
2022/10/27 01:35:53;;;;;;;28.20;10.07;;;18.40;95.20;;;;;;5013564;28;20028;-75
2022/10/27 01:38:38;;;;;;;32.78;10.43;;;18.30;94.90;;;;;;5014180;28;20411;-81
2022/10/27 01:41:10;;;;;;;29.58;11.35;;;18.30;94.70;;;;;;5013232;28;20036;-76
2022/10/27 01:43:36;;;;;;;27.92;10.65;;;18.40;94.60;;;;;;5013624;28;20030;-77
2022/10/27 01:46:05;;;;;;;31.45;11.18;;;18.30;94.50;;;;;;5013552;28;20033;-80
2022/10/27 01:48:58;;;;;;;30.90;11.40;;;18.30;94.30;;;;;;5013604;28;20501;-78
2022/10/27 01:51:23;;;;;;;28.00;11.48;;;18.30;94.20;;;;;;5013459;28;20176;-77
2022/10/27 01:53:51;;;;;;;22.17;10.73;;;18.30;94.30;;;;;;5013207;28;20487;-78
2022/10/27 01:56:47;;;;;;;33.72;11.48;;;18.30;94.30;;;;;;5013215;28;20040;-79
2022/10/27 01:59:12;;;;;;;36.47;11.55;;;18.30;94.30;;;;;;5013130;28;20418;-75
2022/10/27 02:02:03;;;;;;;33.67;12.32;;;18.30;94.30;;;;;;5013193;28;20026;-77
2022/10/27 02:04:31;;;;;;;33.88;11.15;;;18.30;94.40;;;;;;5013525;28;20080;-77
2022/10/27 02:07:11;;;;;;;33.42;11.35;;;18.20;94.30;;;;;;5014386;28;20030;-76
2022/10/27 02:09:42;;;;;;;29.65;11.10;;;18.20;94.20;;;;;;5014196;28;20033;-78
2022/10/27 02:12:36;;;;;;;31.60;11.27;;;18.10;94.20;;;;;;5015038;28;20049;-77
2022/10/27 02:15:31;;;;;;;27.70;10.45;;;18.10;94.20;;;;;;5010752;28;20236;-77
2022/10/27 02:18:05;;;;;;;30.55;11.02;;;18.10;94.20;;;;;;5003254;28;20030;-78
2022/10/27 02:20:39;;;;;;;28.55;10.57;;;18.10;94.20;;;;;;5013177;28;20022;-75
2022/10/27 02:23:07;;;;;;;38.05;11.77;;;18.10;93.90;;;;;;5012093;28;20033;-75
2022/10/27 02:26:11;;;;;;;37.72;11.73;;;18.10;94.10;;;;;;5011560;28;20502;-76
2022/10/27 02:28:48;;;;;;;30.55;11.77;;;18.00;93.80;;;;;;5012971;28;20537;-76
2022/10/27 02:31:17;;;;;;;28.92;11.20;;;18.00;94.00;;;;;;5013048;28;20061;-76
2022/10/27 02:33:43;;;;;;;31.48;12.15;;;18.00;94.00;;;;;;5013553;28;20030;-74
2022/10/27 02:36:09;;;;;;;36.10;11.18;;;18.00;94.00;;;;;;5013492;28;20433;-75
2022/10/27 02:38:35;;;;;;;29.92;10.43;;;18.00;94.00;;;;;;5013594;28;20029;-77
2022/10/27 02:41:00;;;;;;;38.58;11.75;;;17.90;94.00;;;;;;5014139;28;20028;-75
2022/10/27 02:43:26;;;;;;;26.10;10.68;;;17.90;94.10;;;;;;5013522;28;20030;-79
2022/10/27 02:45:52;;;;;;;29.45;11.60;;;17.90;94.10;;;;;;5013102;28;20084;-80
2022/10/27 02:48:18;;;;;;;32.03;11.20;;;17.90;94.20;;;;;;5016545;28;20046;-76
2022/10/27 02:50:43;;;;;;;26.55;10.95;;;17.90;94.20;;;;;;5016011;28;20380;-79
2022/10/27 02:53:12;;;;;;;27.77;12.48;;;17.90;94.20;;;;;;5019000;28;20042;-77
2022/10/27 02:55:37;;;;;;;33.10;11.98;;;17.90;94.30;;;;;;5018517;28;20083;-80
2022/10/27 02:58:03;;;;;;;32.90;11.93;;;17.80;94.60;;;;;;5018167;28;20033;-78
2022/10/27 03:00:29;;;;;;;28.33;11.60;;;17.80;94.40;;;;;;5016484;28;20022;-77
2022/10/27 03:02:55;;;;;;;29.45;11.82;;;17.80;94.60;;;;;;5017524;28;20104;-80
2022/10/27 03:05:22;;;;;;;40.63;11.95;;;17.80;94.60;;;;;;5017200;28;20427;-77
2022/10/27 03:07:47;;;;;;;27.17;12.00;;;17.80;94.60;;;;;;5017073;28;20022;-78
2022/10/27 03:10:13;;;;;;;33.90;12.15;;;17.80;94.60;;;;;;5016342;28;20029;-81
2022/10/27 03:12:39;;;;;;;28.27;12.07;;;17.70;94.50;;;;;;5016461;28;20503;-78
2022/10/27 03:15:06;;;;;;;29.70;11.52;;;17.70;94.60;;;;;;5016088;28;20073;-79
2022/10/27 03:17:33;;;;;;;34.03;11.63;;;17.60;94.50;;;;;;5016396;28;20054;-80
2022/10/27 03:19:59;;;;;;;31.73;11.32;;;17.50;94.50;;;;;;5016278;28;20026;-77
2022/10/27 03:22:24;;;;;;;33.20;12.40;;;17.50;94.70;;;;;;5016063;28;20029;-78
2022/10/27 03:24:50;;;;;;;31.15;12.48;;;17.40;94.80;;;;;;5016207;28;20034;-75
2022/10/27 03:27:16;;;;;;;28.10;11.75;;;17.40;94.80;;;;;;5018177;28;20060;-78
2022/10/27 03:29:42;;;;;;;30.02;11.65;;;17.40;94.90;;;;;;5016579;28;20045;-79
2022/10/27 03:32:08;;;;;;;29.05;10.80;;;17.40;94.80;;;;;;5017501;28;20092;-80
2022/10/27 03:34:33;;;;;;;29.60;11.82;;;17.40;94.80;;;;;;5018508;28;20422;-80
2022/10/27 03:36:59;;;;;;;35.60;12.15;;;17.40;94.70;;;;;;5017774;28;20022;-79
2022/10/27 03:39:25;;;;;;;28.88;11.98;;;17.30;95.00;;;;;;5017992;28;20037;-79
2022/10/27 03:41:50;;;;;;;32.03;11.20;;;17.30;94.70;;;;;;5017232;28;20068;-78
2022/10/27 03:44:16;;;;;;;34.03;11.48;;;17.30;94.50;;;;;;5016585;28;20057;-78
2022/10/27 03:46:43;;;;;;;29.30;10.55;;;17.30;94.50;;;;;;5017079;28;20029;-80
2022/10/27 03:49:10;;;;;;;28.98;11.02;;;17.30;94.20;;;;;;5016359;28;20037;-77
2022/10/27 03:51:38;;;;;;;30.05;11.20;;;17.40;94.10;;;;;;5015026;28;20030;-79
2022/10/27 03:54:04;;;;;;;34.70;10.60;;;17.40;93.90;;;;;;5016174;28;20033;-78
2022/10/27 03:56:30;;;;;;;28.38;9.25;;;17.40;93.70;;;;;;5015317;28;20136;-77
2022/10/27 03:58:56;;;;;;;26.63;9.48;;;17.30;93.30;;;;;;5016001;28;20086;-76
2022/10/27 04:01:22;;;;;;;25.25;8.80;;;17.30;93.10;;;;;;5014496;28;20129;-76
2022/10/27 04:03:48;;;;;;;21.08;8.68;;;17.30;93.20;;;;;;5014910;28;20054;-75
2022/10/27 04:06:15;;;;;;;33.95;9.95;;;17.30;92.70;;;;;;5016560;28;20022;-78
2022/10/27 04:08:41;;;;;;;27.67;9.45;;;17.30;92.50;;;;;;5015215;28;20030;-75
2022/10/27 04:11:07;;;;;;;32.78;10.40;;;17.30;92.40;;;;;;5016870;28;20506;-76
2022/10/27 04:13:32;;;;;;;29.20;10.60;;;17.30;92.50;;;;;;5016096;28;20026;-76
2022/10/27 04:15:59;;;;;;;25.08;9.40;;;17.30;92.60;;;;;;5015601;28;20026;-74
2022/10/27 04:18:25;;;;;;;28.20;10.63;;;17.30;92.70;;;;;;5015654;28;20022;-76
2022/10/27 04:20:51;;;;;;;31.15;10.80;;;17.30;92.70;;;;;;5015535;28;20037;-76
2022/10/27 04:23:19;;;;;;;26.40;10.43;;;17.30;92.60;;;;;;5015192;28;20026;-76
2022/10/27 04:25:45;;;;;;;23.75;10.23;;;17.30;92.70;;;;;;5014866;28;20026;-76
2022/10/27 04:28:11;;;;;;;31.42;10.80;;;17.30;92.70;;;;;;5014494;28;20165;-76
2022/10/27 04:30:38;;;;;;;36.40;10.77;;;17.30;92.70;;;;;;5014312;28;20061;-75
2022/10/27 04:33:03;;;;;;;29.73;10.32;;;17.30;92.90;;;;;;5014511;28;20387;-77
2022/10/27 04:35:29;;;;;;;32.45;11.48;;;17.20;93.10;;;;;;5013263;28;20513;-77
2022/10/27 04:37:56;;;;;;;26.00;11.35;;;17.20;93.30;;;;;;5014313;28;20105;-75
2022/10/27 04:40:22;;;;;;;35.70;12.02;;;17.30;93.40;;;;;;5012902;28;20064;-75
2022/10/27 04:42:47;;;;;;;39.15;12.52;;;17.20;93.50;;;;;;5014337;28;20036;-76
2022/10/27 04:45:14;;;;;;;32.65;12.05;;;17.20;93.60;;;;;;5014215;28;20538;-76
2022/10/27 04:47:41;;;;;;;30.13;11.85;;;17.20;93.70;;;;;;5014512;28;20387;-75
2022/10/27 04:50:08;;;;;;;32.05;11.50;;;17.10;93.80;;;;;;5013469;28;20025;-76
2022/10/27 04:52:35;;;;;;;31.73;11.93;;;17.10;93.90;;;;;;5015555;28;20030;-79
2022/10/27 04:55:01;;;;;;;33.72;12.15;;;17.00;93.90;;;;;;5016452;28;20093;-76
2022/10/27 04:57:27;;;;;;;32.75;11.18;;;17.00;94.00;;;;;;5015392;28;20073;-77
2022/10/27 04:59:53;;;;;;;29.77;11.38;;;17.00;94.00;;;;;;5014570;28;20050;-77
2022/10/27 05:02:18;;;;;;;36.38;11.73;;;17.00;94.10;;;;;;5015226;28;20084;-78
2022/10/27 05:04:44;;;;;;;32.90;10.65;;;16.90;94.10;;;;;;5012621;28;20083;-79
2022/10/27 05:07:10;;;;;;;29.75;11.20;;;16.90;94.20;;;;;;5013623;28;20513;-77
2022/10/27 05:09:35;;;;;;;35.28;11.18;;;16.90;94.30;;;;;;5013857;28;20108;-82
2022/10/27 05:12:01;;;;;;;40.17;12.43;;;16.90;94.20;;;;;;5014149;28;20038;-78
2022/10/27 05:14:27;;;;;;;34.55;10.90;;;17.00;94.30;;;;;;5013201;28;20053;-81
2022/10/27 05:16:53;;;;;;;31.67;12.30;;;17.00;94.30;;;;;;5014376;28;20037;-77
2022/10/27 05:19:19;;;;;;;29.75;10.35;;;17.00;94.10;;;;;;5014850;28;20105;-78
2022/10/27 05:21:45;;;;;;;34.30;10.80;;;17.00;94.30;;;;;;5013781;28;20064;-81
2022/10/27 05:24:11;;;;;;;35.50;12.02;;;17.00;94.20;;;;;;5013821;28;20022;-79
2022/10/27 05:26:36;;;;;;;37.75;11.27;;;17.00;94.10;;;;;;5013486;28;20034;-80
2022/10/27 05:29:02;;;;;;;33.47;10.60;;;17.00;94.10;;;;;;5013843;28;20022;-79
2022/10/27 05:31:28;;;;;;;35.95;10.75;;;17.00;94.00;;;;;;5013482;28;20040;-80
2022/10/27 05:33:53;;;;;;;25.83;10.52;;;17.00;93.90;;;;;;5018410;28;20051;-77
2022/10/27 05:36:19;;;;;;;26.63;10.82;;;16.90;93.80;;;;;;5033113;28;20508;-77
2022/10/27 05:38:45;;;;;;;36.50;10.10;;;16.90;93.80;;;;;;5029784;28;20022;-79
2022/10/27 05:41:12;;;;;;;32.53;10.65;;;16.90;93.80;;;;;;5023190;28;20494;-78
2022/10/27 05:43:38;;;;;;;32.97;10.63;;;16.90;93.70;;;;;;5023285;28;20036;-79
2022/10/27 05:46:04;;;;;;;36.35;10.88;;;16.90;93.70;;;;;;5013589;28;20112;-79
2022/10/27 05:48:30;;;;;;;31.77;11.40;;;16.90;93.70;;;;;;5013313;28;20056;-77
2022/10/27 05:50:56;;;;;;;27.90;10.45;;;16.90;93.70;;;;;;5014509;28;20053;-80
2022/10/27 05:53:21;;;;;;;24.63;10.40;;;16.90;93.70;;;;;;5033462;28;20064;-80
2022/10/27 05:55:50;;;;;;;27.55;10.65;;;17.00;93.80;;;;;;5029854;28;20014;-75
2022/10/27 05:58:16;;;;;;;38.28;14.93;;;17.00;93.80;;;;;;5032663;28;20053;-79
2022/10/27 06:00:42;;;;;;;30.27;11.05;;;17.00;93.70;;;;;;5033062;28;20029;-78
2022/10/27 06:03:22;;;;;;;39.53;12.38;;;17.00;93.60;;;;;;5033184;28;20029;-79
2022/10/27 06:05:49;;;;;;;35.00;13.50;;;17.00;93.50;;;;;;5032870;28;20029;-77
2022/10/27 06:08:15;;;;;;;31.60;11.70;;;17.10;93.50;;;;;;5032931;28;20030;-76
2022/10/27 06:10:43;;;;;;;36.85;11.68;;;17.10;93.50;;;;;;5026689;28;20037;-78
2022/10/27 06:13:12;;;;;;;25.80;11.85;;;17.10;93.40;;;;;;5035046;28;20033;-75
2022/10/27 06:15:38;;;;;;;35.88;11.25;;;17.20;93.50;;;;;;5017958;28;20029;-76
2022/10/27 06:18:04;;;;;;;25.88;10.88;;;17.20;93.30;;;;;;5016540;28;20360;-75
2022/10/27 06:20:29;;;;;;;36.70;11.95;;;17.10;93.10;;;;;;5019071;28;20029;-77
2022/10/27 06:22:55;;;;;;;31.33;11.48;;;17.10;93.20;;;;;;5024434;28;20405;-79
2022/10/27 06:25:21;;;;;;;26.55;11.00;;;17.20;93.20;;;;;;5020477;28;20360;-77
2022/10/27 06:27:47;;;;;;;36.30;12.15;;;17.20;93.20;;;;;;5017142;28;20105;-76
2022/10/27 06:30:12;;;;;;;32.92;11.77;;;17.20;93.10;;;;;;5020402;28;20036;-74
2022/10/27 06:32:39;;;;;;;23.75;11.05;;;17.30;93.00;;;;;;5016674;28;20069;-73
2022/10/27 06:35:06;;;;;;;39.05;11.63;;;17.40;92.90;;;;;;5023760;28;20025;-74
2022/10/27 06:37:32;;;;;;;38.92;12.10;;;17.40;92.70;;;;;;5035998;28;20021;-73
2022/10/27 06:39:58;;;;;;;34.42;12.55;;;17.50;92.60;;;;;;5036277;28;20113;-72
2022/10/27 06:42:24;;;;;;;25.35;11.77;;;17.50;92.50;;;;;;5034799;28;20022;-74
2022/10/27 06:44:50;;;;;;;40.13;13.00;;;17.60;92.50;;;;;;5036296;28;20026;-74
2022/10/27 06:47:16;;;;;;;45.80;12.02;;;17.70;92.30;;;;;;5036469;28;20029;-72
2022/10/27 06:49:42;;;;;;;40.03;12.32;;;17.80;92.30;;;;;;5036103;28;20032;-74
2022/10/27 06:52:07;;;;;;;35.10;12.30;;;17.90;92.10;;;;;;5032685;28;20040;-73
2022/10/27 06:54:33;;;;;;;37.05;12.90;;;18.00;92.10;;;;;;5035876;28;20022;-73
2022/10/27 06:56:59;;;;;;;41.35;12.40;;;18.10;91.90;;;;;;5035458;28;20176;-74
2022/10/27 06:59:24;;;;;;;37.00;12.05;;;18.20;91.70;;;;;;5035659;28;20045;-73
2022/10/27 07:01:50;;;;;;;34.13;11.90;;;18.20;91.70;;;;;;5035623;28;20036;-73
2022/10/27 07:04:16;;;;;;;31.52;11.18;;;18.30;91.50;;;;;;5035654;28;20091;-75
2022/10/27 07:06:44;;;;;;;37.25;13.25;;;18.40;91.30;;;;;;5034579;28;20103;-76
2022/10/27 07:09:11;;;;;;;35.05;12.43;;;18.50;91.30;;;;;;5015973;28;20026;-77
2022/10/27 07:11:37;;;;;;;38.75;11.95;;;18.50;91.10;;;;;;5016944;28;20069;-76
2022/10/27 07:14:03;;;;;;;39.88;11.73;;;18.50;90.80;;;;;;5015865;28;20026;-76
2022/10/27 07:16:29;;;;;;;34.28;11.85;;;18.60;90.60;;;;;;5015483;28;20022;-74
2022/10/27 07:18:54;;;;;;;40.50;11.35;;;18.70;90.50;;;;;;5015919;28;20022;-76
2022/10/27 07:21:21;;;;;;;30.98;11.35;;;18.80;90.30;;;;;;5015511;28;20032;-76
2022/10/27 07:23:47;;;;;;;38.50;11.05;;;18.90;90.20;;;;;;5021322;28;20072;-78
2022/10/27 07:26:13;;;;;;;38.15;11.75;;;18.90;90.10;;;;;;5015551;28;20443;-79
2022/10/27 07:28:38;;;;;;;31.48;10.77;;;19.00;90.00;;;;;;5015804;28;20075;-76
2022/10/27 07:31:04;;;;;;;42.67;11.85;;;19.10;89.80;;;;;;5016413;28;20056;-76
2022/10/27 07:33:30;;;;;;;28.38;10.18;;;19.10;89.50;;;;;;5015492;28;20443;-76
2022/10/27 07:35:57;;;;;;;32.90;10.45;;;19.20;89.10;;;;;;5015181;28;20057;-78
2022/10/27 07:38:22;;;;;;;34.42;10.00;;;19.20;89.30;;;;;;5014532;28;20022;-78
2022/10/27 07:40:49;;;;;;;26.80;10.50;;;19.20;88.60;;;;;;5015335;28;20021;-73
2022/10/27 07:43:15;;;;;;;29.58;10.95;;;19.20;88.80;;;;;;5015238;28;20030;-76
2022/10/27 07:45:41;;;;;;;31.15;10.10;;;19.20;88.60;;;;;;5013702;28;20080;-77
2022/10/27 07:48:12;;;;;;;26.40;10.35;;;19.20;88.30;;;;;;5014975;28;20471;-80
2022/10/27 07:50:38;;;;;;;36.40;10.85;;;19.20;87.90;;;;;;5015077;28;20117;-76
2022/10/27 07:53:04;;;;;;;32.85;10.38;;;19.20;87.80;;;;;;5014973;28;20108;-76
2022/10/27 07:55:33;;;;;;;29.73;10.27;;;19.20;87.80;;;;;;5014772;28;20384;-77
2022/10/27 07:58:01;;;;;;;33.65;10.75;;;19.20;87.40;;;;;;5015067;28;20030;-77
2022/10/27 08:00:27;;;;;;;30.15;9.20;;;19.20;87.30;;;;;;5015399;28;20056;-78
2022/10/27 08:02:53;;;;;;;28.15;9.73;;;19.20;87.10;;;;;;5015454;28;20032;-77
2022/10/27 08:05:19;;;;;;;31.10;11.40;;;19.20;87.20;;;;;;5013944;28;20062;-77
2022/10/27 08:07:44;;;;;;;27.30;10.45;;;19.20;87.10;;;;;;5015386;28;20026;-78
2022/10/27 08:10:10;;;;;;;33.33;9.13;;;19.30;87.20;;;;;;5015284;28;20581;-77
2022/10/27 08:12:45;;;;;;;29.08;10.82;;;19.30;86.70;;;;;;5014941;28;20042;-77
2022/10/27 08:15:11;;;;;;;39.53;10.27;;;19.30;86.40;;;;;;5014444;28;20060;-78
2022/10/27 08:17:38;;;;;;;32.60;10.32;;;19.30;85.90;;;;;;5014318;28;20057;-77
2022/10/27 08:20:06;;;;;;;43.28;15.73;;;19.40;86.10;;;;;;5014550;28;20087;-76
2022/10/27 08:22:32;;;;;;;36.40;12.50;;;19.40;85.70;;;;;;5014680;28;20034;-78
2022/10/27 08:24:57;;;;;;;38.47;12.90;;;19.40;85.20;;;;;;5014265;28;20140;-77
2022/10/27 08:27:24;;;;;;;30.58;10.52;;;19.50;85.30;;;;;;5014265;28;20022;-76
2022/10/27 08:29:50;;;;;;;33.22;10.00;;;19.50;85.00;;;;;;5014439;28;20026;-77
2022/10/27 08:32:15;;;;;;;34.05;10.02;;;19.60;84.80;;;;;;5013077;28;20080;-80
2022/10/27 08:34:41;;;;;;;35.38;9.85;;;19.70;84.80;;;;;;5014380;28;20096;-76
2022/10/27 08:37:12;;;;;;;38.40;9.57;;;19.70;84.20;;;;;;5012837;28;20046;-77
2022/10/27 08:39:39;;;;;;;36.92;8.88;;;19.80;84.10;;;;;;5013886;28;20022;-75
2022/10/27 08:42:32;;;;;;;28.98;9.02;;;19.80;84.10;;;;;;5012422;28;20176;-77
2022/10/27 08:45:41;;;;;;;30.48;8.73;;;19.90;83.40;;;;;;5013783;28;20032;-77
2022/10/27 08:48:10;;;;;;;32.97;11.48;;;20.00;83.10;;;;;;5005323;28;20038;-77
2022/10/27 08:50:42;;;;;;;36.55;13.55;;;20.00;82.20;;;;;;5013903;28;20034;-78
2022/10/27 08:53:14;;;;;;;36.75;10.50;;;20.10;82.70;;;;;;5013857;28;20033;-76
2022/10/27 08:55:53;;;;;;;36.70;9.68;;;20.10;81.30;;;;;;5014253;28;20022;-77
2022/10/27 08:58:36;;;;;;;22.98;7.40;;;20.20;80.80;;;;;;5012264;28;20054;-77
2022/10/27 09:01:19;;;;;;;27.33;9.35;;;20.20;81.50;;;;;;5013587;28;20017;-77
2022/10/27 09:04:17;;;;;;;28.33;8.82;;;20.30;81.00;;;;;;5013857;28;20042;-78
2022/10/27 09:07:01;;;;;;;23.65;9.02;;;20.30;80.60;;;;;;5001338;28;20037;-78
2022/10/27 09:09:53;;;;;;;36.05;8.57;;;20.40;80.50;;;;;;5014372;28;20454;-78
2022/10/27 09:12:39;;;;;;;27.33;8.48;;;20.40;80.00;;;;;;5013848;28;20038;-79
2022/10/27 09:15:43;;;;;;;33.22;9.35;;;20.50;79.60;;;;;;5013518;28;20029;-77
2022/10/27 09:18:29;;;;;;;33.58;10.48;;;20.60;79.30;;;;;;4995570;28;20494;-77
2022/10/27 09:20:57;;;;;;;31.95;8.95;;;20.60;78.70;;;;;;5013371;28;20087;-78
2022/10/27 09:23:38;;;;;;;25.98;8.52;;;20.70;77.60;;;;;;5013349;28;20033;-73
2022/10/27 09:26:05;;;;;;;30.45;9.40;;;20.70;77.80;;;;;;5013369;28;20030;-77
2022/10/27 09:28:42;;;;;;;32.58;8.55;;;20.80;77.10;;;;;;5012831;28;20049;-78
2022/10/27 09:31:14;;;;;;;27.38;8.90;;;20.90;77.00;;;;;;5012975;28;20033;-74
2022/10/27 09:33:48;;;;;;;26.90;8.30;;;21.00;76.90;;;;;;5013120;28;20025;-75
2022/10/27 09:36:14;;;;;;;34.70;9.13;;;21.10;76.70;;;;;;5013271;28;20083;-77
2022/10/27 09:38:40;;;;;;;35.08;10.15;;;21.20;76.60;;;;;;5013204;28;20101;-75
2022/10/27 09:41:06;;;;;;;36.15;8.43;;;21.30;76.60;;;;;;5012912;28;20618;-74
2022/10/27 09:43:33;;;;;;;27.73;8.98;;;21.30;76.00;;;;;;5013439;28;20076;-76
2022/10/27 09:46:04;;;;;;;28.35;8.90;;;21.40;74.90;;;;;;4995643;28;20026;-74
2022/10/27 09:48:30;;;;;;;121.10;15.15;;;21.50;74.60;;;;;;5013239;28;20032;-73
2022/10/27 09:51:05;;;;;;;32.08;8.15;;;21.50;74.40;;;;;;5012792;28;20025;-76
2022/10/27 09:53:42;;;;;;;26.85;8.90;;;21.60;75.10;;;;;;5011559;28;20120;-74
2022/10/27 09:56:12;;;;;;;39.92;9.10;;;21.70;73.80;;;;;;5012769;28;20033;-76
2022/10/27 09:59:03;;;;;;;41.22;9.23;;;21.80;72.60;;;;;;5013249;28;20459;-77
2022/10/27 10:01:40;;;;;;;48.53;9.77;;;21.90;73.20;;;;;;5016990;28;20474;-67
2022/10/27 10:04:15;;;;;;;33.03;8.93;;;22.00;72.90;;;;;;5017390;28;20033;-77
2022/10/27 10:06:42;;;;;;;30.00;8.13;;;22.00;72.50;;;;;;5017759;28;20459;-76
2022/10/27 10:09:27;;;;;;;31.15;7.35;;;22.10;71.90;;;;;;5017250;28;20040;-75
2022/10/27 10:12:12;;;;;;;30.13;8.05;;;22.20;71.20;;;;;;5017041;28;20073;-75
2022/10/27 10:14:38;;;;;;;30.23;7.60;;;22.30;70.80;;;;;;5016965;28;20030;-75
2022/10/27 10:17:03;;;;;;;34.15;7.82;;;22.40;70.60;;;;;;5017065;28;20484;-75
2022/10/27 10:19:30;;;;;;;55.42;9.95;;;22.50;70.00;;;;;;5016762;28;20080;-79
2022/10/27 10:22:00;;;;;;;28.27;7.68;;;22.60;69.90;;;;;;5015653;28;20030;-77
2022/10/27 10:24:29;;;;;;;27.20;7.13;;;22.70;69.90;;;;;;5017046;28;20053;-76
2022/10/27 10:27:00;;;;;;;27.17;7.07;;;22.70;69.20;;;;;;5016878;28;20036;-77
2022/10/27 10:29:45;;;;;;;30.98;6.72;;;22.80;68.80;;;;;;5016414;28;20479;-75
2022/10/27 10:32:14;;;;;;;26.08;7.45;;;22.90;68.60;;;;;;5016146;28;20042;-76
2022/10/27 10:34:44;;;;;;;24.75;6.70;;;23.00;68.10;;;;;;5014912;28;20030;-75
2022/10/27 10:37:33;;;;;;;29.17;7.22;;;23.00;68.00;;;;;;5016113;28;20026;-74
2022/10/27 10:40:12;;;;;;;26.88;6.82;;;23.10;66.60;;;;;;5016294;28;20064;-73
2022/10/27 10:42:38;;;;;;;30.13;6.78;;;23.10;65.40;;;;;;5016274;28;20430;-75
2022/10/27 10:45:32;;;;;;;22.35;6.70;;;23.20;65.10;;;;;;5016330;28;20414;-76
2022/10/27 10:48:02;;;;;;;28.42;6.38;;;23.30;66.40;;;;;;5015023;28;20092;-75
2022/10/27 10:50:29;;;;;;;29.85;7.18;;;23.30;65.90;;;;;;5015977;28;20053;-74
2022/10/27 10:52:58;;;;;;;20.30;6.03;;;23.40;65.00;;;;;;5016080;28;20068;-78
2022/10/27 10:55:36;;;;;;;33.22;6.78;;;23.50;64.70;;;;;;5016252;28;20467;-77
2022/10/27 10:58:02;;;;;;;27.63;5.97;;;23.60;64.50;;;;;;5016181;28;20037;-79
2022/10/27 11:00:28;;;;;;;19.67;6.30;;;23.60;64.40;;;;;;5016128;28;20030;-80
2022/10/27 11:02:54;;;;;;;23.25;6.63;;;23.60;64.30;;;;;;5016176;28;20212;-78
2022/10/27 11:05:28;;;;;;;28.45;8.23;;;23.70;64.10;;;;;;5016408;28;20073;-79
2022/10/27 11:07:54;;;;;;;21.23;7.22;;;23.80;63.70;;;;;;5016204;28;20112;-78
2022/10/27 11:10:25;;;;;;;20.90;5.95;;;23.80;63.70;;;;;;5016404;28;20018;-78
2022/10/27 11:12:53;;;;;;;25.33;6.82;;;23.90;62.00;;;;;;5018108;28;20113;-78
2022/10/27 11:15:26;;;;;;;31.45;6.63;;;24.00;63.00;;;;;;5018246;28;20071;-80
2022/10/27 11:17:57;;;;;;;24.58;6.70;;;24.10;60.60;;;;;;5016861;28;20033;-80
2022/10/27 11:20:28;;;;;;;24.17;5.68;;;24.20;61.40;;;;;;5016231;28;20137;-76
2022/10/27 11:22:54;;;;;;;29.85;6.68;;;24.30;60.90;;;;;;5016154;28;20044;-78
2022/10/27 11:25:26;;;;;;;26.75;8.27;;;24.30;60.80;;;;;;5015712;28;20025;-76
2022/10/27 11:28:15;;;;;;;32.78;6.75;;;24.40;60.60;;;;;;5016085;28;20041;-75
2022/10/27 11:30:49;;;;;;;22.25;5.85;;;24.50;59.70;;;;;;5015834;28;20022;-78
2022/10/27 11:33:24;;;;;;;21.50;5.63;;;24.60;58.90;;;;;;5015934;28;20494;-73
2022/10/27 11:35:59;;;;;;;23.95;5.93;;;24.70;59.20;;;;;;5015483;28;20474;-73
2022/10/27 11:38:43;;;;;;;19.15;5.45;;;24.80;58.30;;;;;;5015140;28;20030;-75
2022/10/27 11:41:12;;;;;;;;;;;24.80;58.00;;;;;;5015709;28;20030;-73
2022/10/27 11:43:50;;;;;;;31.08;6.22;;;25.00;58.40;;;;;;5015253;28;19909;-77
2022/10/27 11:46:40;;;;;;;26.42;6.18;;;25.00;58.60;;;;;;5015022;28;20101;-74
2022/10/27 11:49:31;;;;;;;26.50;6.30;;;25.10;57.60;;;;;;5015105;28;20044;-73
2022/10/27 11:52:16;;;;;;;28.63;6.63;;;25.20;57.10;;;;;;5015247;28;20471;-72
2022/10/27 11:54:42;;;;;;;27.48;5.95;;;25.30;56.90;;;;;;5015077;28;20026;-72
2022/10/27 11:57:27;;;;;;;26.58;7.18;;;25.30;57.60;;;;;;5015042;28;20105;-74
2022/10/27 12:00:06;;;;;;;25.48;6.20;;;25.30;56.50;;;;;;5014648;28;20104;-78
2022/10/27 12:02:56;;;;;;;35.65;6.00;;;25.40;56.50;;;;;;5014851;28;20028;-76
2022/10/27 12:05:30;;;;;;;24.00;6.07;;;25.40;55.90;;;;;;5014929;28;20045;-77
2022/10/27 12:08:27;;;;;;;24.17;6.05;;;25.50;57.00;;;;;;5014822;28;20491;-78
2022/10/27 12:11:14;;;;;;;30.38;5.93;;;25.60;56.20;;;;;;5011929;28;20049;-77
2022/10/27 12:14:13;;;;;;;26.55;5.72;;;25.60;55.70;;;;;;5014949;28;20064;-78
2022/10/27 12:16:45;;;;;;;37.40;6.95;;;25.70;55.90;;;;;;5014327;28;20483;-75
2022/10/27 12:19:22;;;;;;;29.02;6.53;;;25.70;55.90;;;;;;5014411;28;20018;-77
2022/10/27 12:22:12;;;;;;;24.90;6.50;;;25.80;55.80;;;;;;5015000;28;20500;-77
2022/10/27 12:24:59;;;;;;;37.63;6.38;;;25.90;56.00;;;;;;5003986;28;20042;-78
2022/10/27 12:27:38;;;;;;;24.25;5.95;;;25.90;55.20;;;;;;5014576;28;20026;-80
2022/10/27 12:30:30;;;;;;;31.27;7.13;;;25.90;56.00;;;;;;5014898;28;20122;-81
2022/10/27 12:33:30;;;;;;;26.73;6.70;;;26.00;55.80;;;;;;5011794;28;20064;-75
2022/10/27 12:36:28;;;;;;;32.53;7.72;;;26.10;55.10;;;;;;5014211;28;20030;-77
2022/10/27 12:39:04;;;;;;;30.20;6.18;;;26.10;55.00;;;;;;5013596;28;20522;-76
2022/10/27 12:41:31;;;;;;;34.10;6.65;;;26.10;54.70;;;;;;5013899;28;20025;-74
2022/10/27 12:44:12;;;;;;;28.30;6.15;;;26.20;53.90;;;;;;5013835;28;20025;-74
2022/10/27 12:46:52;;;;;;;26.83;6.65;;;26.30;53.00;;;;;;5014337;28;20037;-79
2022/10/27 12:49:29;;;;;;;25.40;5.82;;;26.30;52.20;;;;;;5014200;28;20033;-75
2022/10/27 12:52:12;;;;;;;31.50;7.15;;;26.30;52.50;;;;;;5014614;28;20041;-77